Time;durP1;ratioP1;P1;durP2;ratioP2;P2;SDS_P1;SDS_P2;PMS_P1;PMS_P2;Temp;Humidity;BMP_temperature;BMP_pressure;BME280_temperature;BME280_humidity;BME280_pressure;Samples;Min_cycle;Max_cycle;Signal;HPM_P1;HPM_P2
2021/04/12 00:01:51;;;;;;;14.60;6.33;;;;;;;8.63;51.85;98025.25;5070681;28;20111;-87
2021/04/12 00:04:26;;;;;;;12.55;6.80;;;;;;;8.33;54.76;98004.47;5070941;28;20091;-88
2021/04/12 00:07:14;;;;;;;13.23;7.22;;;;;;;8.24;53.65;97996.88;5054023;28;20480;-87
2021/04/12 00:09:49;;;;;;;26.23;9.02;;;;;;;8.30;55.53;98024.16;5071146;28;20021;-87
2021/04/12 00:12:20;;;;;;;11.32;6.30;;;;;;;8.03;54.27;97994.22;5037192;28;20145;-87
2021/04/12 00:14:51;;;;;;;20.80;8.15;;;;;;;7.84;56.74;97996.00;5037524;28;20032;-88
2021/04/12 00:17:21;;;;;;;14.15;7.72;;;;;;;7.80;57.43;98009.50;5054123;28;20104;-88
2021/04/12 00:19:56;;;;;;;12.60;6.47;;;;;;;7.53;57.68;97990.25;5037643;28;20029;-87
2021/04/12 00:22:24;;;;;;;22.90;8.57;;;;;;;7.58;59.65;98015.75;5054848;28;20103;-87
2021/04/12 00:24:58;;;;;;;11.85;6.40;;;;;;;7.61;57.13;97983.66;5071064;28;20031;-87
2021/04/12 00:27:29;;;;;;;19.98;8.30;;;;;;;7.70;59.25;98016.13;5036950;28;20021;-88
2021/04/12 00:30:00;;;;;;;17.80;8.10;;;;;;;7.38;61.86;98025.50;5047537;28;20468;-87
2021/04/12 00:32:47;;;;;;;15.75;8.07;;;;;;;7.04;63.45;97996.75;5030262;28;20026;-88
2021/04/12 00:35:52;;;;;;;22.15;9.93;;;;;;;6.90;64.63;98005.28;5043707;28;20055;-88
2021/04/12 00:38:23;;;;;;;23.63;10.07;;;;;;;6.51;66.79;97993.56;5016568;28;20025;-87
2021/04/12 00:41:06;;;;;;;24.83;9.40;;;;;;;6.45;68.75;98001.78;5000159;28;20025;-87
2021/04/12 00:44:07;;;;;;;19.85;9.45;;;;;;;6.29;69.07;97971.41;5038329;28;20029;-87
2021/04/12 00:47:00;;;;;;;23.05;10.88;;;;;;;6.23;69.88;98006.16;5033088;28;20025;-87
2021/04/12 00:49:45;;;;;;;23.77;10.40;;;;;;;6.18;70.66;98002.81;5036123;28;20017;-87
2021/04/12 00:52:16;;;;;;;27.85;11.70;;;;;;;6.05;71.79;97996.22;5069573;28;20472;-89
2021/04/12 00:54:51;;;;;;;28.42;11.82;;;;;;;5.79;72.50;97962.63;5042032;28;20033;-87
2021/04/12 00:57:41;;;;;;;34.20;13.45;;;;;;;5.89;72.25;97988.81;5016681;28;20566;-86
2021/04/12 01:00:24;;;;;;;32.58;13.73;;;;;;;5.83;72.34;97989.00;5033473;28;20030;-87
2021/04/12 01:03:15;;;;;;;34.05;13.55;;;;;;;5.71;72.20;97985.94;5013279;28;20033;-87
2021/04/12 01:05:52;;;;;;;30.35;13.43;;;;;;;5.76;72.91;98010.50;5029660;28;20042;-87
2021/04/12 01:09:01;;;;;;;28.58;13.32;;;;;;;5.79;72.71;98005.09;5031247;28;20022;-86
2021/04/12 01:12:04;;;;;;;33.20;13.23;;;;;;;5.72;73.03;98004.44;5005052;28;20137;-86
2021/04/12 01:14:51;;;;;;;29.50;12.57;;;;;;;5.78;72.83;97998.06;5029278;28;20516;-87
2021/04/12 01:17:47;;;;;;;24.75;12.20;;;;;;;5.75;72.99;98009.63;5045381;28;20116;-86
2021/04/12 01:20:47;;;;;;;24.60;12.32;;;;;;;5.80;72.21;98013.00;5029198;28;20034;-87
2021/04/12 01:23:42;;;;;;;26.45;11.43;;;;;;;5.86;71.71;98007.53;5054323;28;20465;-87
2021/04/12 01:26:13;;;;;;;24.15;11.05;;;;;;;5.93;72.38;98003.72;5032145;28;20504;-88
2021/04/12 01:29:10;;;;;;;26.98;12.75;;;;;;;5.75;72.09;97968.97;5052753;28;20024;-88
2021/04/12 01:31:57;;;;;;;29.83;12.07;;;;;;;5.91;71.95;98000.25;5068826;28;20048;-87
2021/04/12 01:34:41;;;;;;;27.58;11.60;;;;;;;5.88;72.47;97987.06;5062405;28;20056;-87
2021/04/12 01:37:42;;;;;;;23.85;11.50;;;;;;;6.02;72.38;97996.34;5031328;28;20409;-87
2021/04/12 01:40:44;;;;;;;21.63;11.23;;;;;;;6.05;72.64;97993.56;5030260;28;20041;-87
2021/04/12 01:43:34;;;;;;;34.97;12.17;;;;;;;5.96;73.85;97997.44;5031681;28;20029;-87
2021/04/12 01:46:06;;;;;;;21.88;10.50;;;;;;;6.04;72.81;97999.78;5034758;28;20109;-86
2021/04/12 01:48:39;;;;;;;22.63;10.93;;;;;;;5.89;73.92;97996.78;5058552;28;20531;-87
2021/04/12 01:51:18;;;;;;;26.15;11.07;;;;;;;5.98;73.71;98000.88;5037540;28;20035;-87
2021/04/12 01:54:25;;;;;;;24.27;10.10;;;;;;;5.96;73.30;97987.69;5068059;28;20025;-87
2021/04/12 01:57:16;;;;;;;24.08;10.88;;;;;;;5.93;75.06;97982.50;5032852;28;20059;-87
2021/04/12 02:00:01;;;;;;;20.67;10.70;;;;;;;5.85;74.78;97979.22;5085154;28;20562;-87
2021/04/12 02:02:51;;;;;;;22.20;9.43;;;;;;;5.88;74.77;97979.13;5051258;28;20037;-87
2021/04/12 02:05:25;;;;;;;22.25;10.00;;;;;;;5.91;75.13;97984.31;5028747;28;20038;-87
2021/04/12 02:07:57;;;;;;;22.58;9.98;;;;;;;5.91;75.43;97979.00;5045095;28;20058;-87
2021/04/12 02:10:31;;;;;;;21.77;10.50;;;;;;;5.89;75.61;97977.34;5028636;28;20080;-87
2021/04/12 02:12:58;;;;;;;25.90;11.20;;;;;;;5.92;76.91;97980.75;5048384;28;20486;-87
2021/04/12 02:16:02;;;;;;;27.73;12.02;;;;;;;6.06;75.39;97980.22;5068070;28;20486;-87
2021/04/12 02:19:05;;;;;;;24.00;11.32;;;;;;;6.19;74.22;97978.84;5067954;28;20060;-87
2021/04/12 02:21:37;;;;;;;21.35;10.38;;;;;;;6.29;73.98;97979.38;5067594;28;20082;-87
2021/04/12 02:24:15;;;;;;;30.98;11.35;;;;;;;6.28;74.56;97957.25;5054850;28;20058;-87
2021/04/12 02:27:19;;;;;;;23.92;10.98;;;;;;;6.44;74.13;97962.84;5055589;28;20485;-88
2021/04/12 02:30:06;;;;;;;;;;;;;;;6.52;72.67;97971.41;5031999;28;20052;-87
2021/04/12 02:32:53;;;;;;;22.50;9.85;;;;;;;6.47;72.76;97968.03;5047707;28;19914;-86
2021/04/12 02:35:41;;;;;;;30.70;9.32;;;;;;;6.61;71.48;97965.72;5031725;28;20026;-87
2021/04/12 02:38:16;;;;;;;19.00;9.68;;;;;;;6.75;71.50;97967.81;5014553;28;20032;-87
2021/04/12 02:40:59;;;;;;;23.80;9.77;;;;;;;6.76;71.76;97965.09;5031040;28;20435;-87
2021/04/12 02:43:34;;;;;;;25.88;9.50;;;;;;;6.84;72.30;97968.31;5061546;28;20562;-86
2021/04/12 02:46:58;;;;;;;20.45;9.30;;;;;;;6.90;71.56;97962.75;5071640;28;20033;-87
2021/04/12 02:49:29;;;;;;;20.38;8.98;;;;;;;7.00;70.89;97974.75;5006177;28;20044;-86
2021/04/12 02:52:17;;;;;;;22.80;8.60;;;;;;;7.02;70.86;97970.22;5054077;28;21463;-86
2021/04/12 02:55:10;;;;;;;18.13;8.90;;;;;;;7.01;70.52;97954.34;5070907;28;20060;-86
2021/04/12 02:57:45;;;;;;;26.33;9.05;;;;;;;7.17;68.64;97965.22;5040981;28;20037;-86
2021/04/12 03:00:52;;;;;;;24.95;9.48;;;;;;;7.24;69.65;97966.66;5034933;28;20029;-86
2021/04/12 03:03:43;;;;;;;21.20;9.15;;;;;;;7.31;69.24;97958.38;5065241;28;20044;-86
2021/04/12 03:06:23;;;;;;;27.38;10.00;;;;;;;7.40;69.36;97962.44;5050179;28;20040;-87
2021/04/12 03:09:11;;;;;;;26.55;11.55;;;;;;;7.46;68.38;97956.84;5035921;28;20052;-87
2021/04/12 03:11:47;;;;;;;25.10;11.63;;;;;;;7.50;68.94;97959.31;5034294;28;20449;-87
2021/04/12 03:14:22;;;;;;;32.65;11.73;;;;;;;7.58;69.68;97951.88;5034071;28;20029;-87
2021/04/12 03:17:00;;;;;;;37.70;11.57;;;;;;;7.60;71.20;97962.44;5033603;28;20033;-86
2021/04/12 03:19:53;;;;;;;34.20;13.07;;;;;;;7.57;70.39;97959.91;5034125;28;20121;-86
2021/04/12 03:23:09;;;;;;;60.03;24.00;;;;;;;7.62;70.93;97952.59;5033663;28;20068;-86
2021/04/12 03:25:58;;;;;;;54.15;21.70;;;;;;;7.52;71.19;97957.44;5025514;28;20099;-86
2021/04/12 03:28:29;;;;;;;53.40;20.33;;;;;;;7.55;69.76;97945.81;5017677;28;20112;-87
2021/04/12 03:31:07;;;;;;;49.03;21.75;;;;;;;7.50;69.56;97948.69;5033739;28;20032;-86
2021/04/12 03:33:47;;;;;;;58.55;22.25;;;;;;;7.43;69.33;97949.00;5017327;28;20535;-87
2021/04/12 03:36:17;;;;;;;42.83;20.50;;;;;;;7.37;69.25;97943.94;5067051;28;20060;-87
2021/04/12 03:39:16;;;;;;;44.83;18.73;;;;;;;7.39;70.77;97958.03;5033223;28;20033;-86
2021/04/12 03:42:06;;;;;;;41.15;17.88;;;;;;;7.33;70.39;97947.66;5044825;28;20028;-86
2021/04/12 03:44:49;;;;;;;42.63;17.27;;;;;;;7.35;70.75;97951.97;5069820;28;20033;-86
2021/04/12 03:47:36;;;;;;;43.25;16.73;;;;;;;7.29;71.45;97956.72;5087372;28;20017;-86
2021/04/12 03:50:39;;;;;;;38.05;16.75;;;;;;;7.25;70.99;97944.47;5069774;28;20025;-85
2021/04/12 03:53:14;;;;;;;32.72;13.20;;;;;;;7.25;69.73;97944.47;5067083;28;20504;-85
2021/04/12 03:56:02;;;;;;;31.60;12.82;;;;;;;7.22;69.84;97941.94;5040555;28;20057;-86
2021/04/12 03:58:33;;;;;;;33.75;12.20;;;;;;;7.25;70.19;97944.47;5016039;28;20099;-85
2021/04/12 04:01:23;;;;;;;24.85;11.05;;;;;;;7.30;70.22;97950.44;5046157;28;20049;-86
2021/04/12 04:04:10;;;;;;;29.70;11.63;;;;;;;7.38;68.67;97948.34;5069463;28;20378;-87
2021/04/12 04:06:57;;;;;;;41.92;12.55;;;;;;;7.46;67.67;97951.53;5052959;28;20033;-86
2021/04/12 04:09:40;;;;;;;29.15;12.40;;;;;;;7.40;68.76;97941.16;5056806;28;20578;-89
2021/04/12 04:12:38;;;;;;;31.92;14.63;;;;;;;7.48;68.98;97960.28;5059781;28;20057;-87
2021/04/12 04:15:27;;;;;;;46.60;21.20;;;;;;;7.49;69.91;97956.72;5003158;28;20646;-87
2021/04/12 04:18:21;;;;;;;42.72;17.67;;;;;;;7.37;69.30;97910.22;5033228;28;20065;-86
2021/04/12 04:20:55;;;;;;;36.22;15.43;;;;;;;7.64;69.41;97950.72;5034067;28;20025;-86
2021/04/12 04:23:24;;;;;;;40.65;15.75;;;;;;;7.75;70.00;97961.78;5033355;28;20033;-87
2021/04/12 04:26:14;;;;;;;47.05;16.52;;;;;;;7.87;69.48;97953.25;5033934;28;20446;-87
2021/04/12 04:28:57;;;;;;;39.72;18.15;;;;;;;7.92;69.13;97959.22;5032338;28;20105;-73
2021/04/12 04:31:50;;;;;;;36.00;18.95;;;;;;;8.03;70.87;97966.72;5033608;28;20025;-72
2021/04/12 04:34:32;;;;;;;48.20;19.05;;;;;;;8.15;69.06;97961.69;5016408;28;20489;-72
2021/04/12 04:37:25;;;;;;;45.25;18.80;;;;;;;8.25;69.92;97969.28;5047798;28;20034;-73
2021/04/12 04:40:01;;;;;;;74.88;20.10;;;;;;;8.29;68.86;97957.56;5031611;28;20168;-73
2021/04/12 04:42:36;;;;;;;52.55;20.85;;;;;;;8.44;69.90;97971.06;5031560;28;20029;-73
2021/04/12 04:45:13;;;;;;;68.45;27.48;;;;;;;8.51;70.00;97971.63;5032074;28;20057;-73
2021/04/12 04:48:09;;;;;;;67.45;25.20;;;;;;;8.45;70.69;97967.47;5030725;28;20033;-72
2021/04/12 04:50:53;;;;;;;47.30;20.35;;;;;;;8.48;70.94;97962.00;5047361;28;20503;-72
2021/04/12 04:53:54;;;;;;;43.35;19.20;;;;;;;8.51;70.63;97950.31;4999400;28;20036;-73
2021/04/12 04:57:00;;;;;;;42.58;15.63;;;;;;;8.59;69.60;97954.34;4992563;28;20117;-72
2021/04/12 04:59:54;;;;;;;83.22;25.38;;;;;;;8.64;71.11;97946.97;5027390;28;20524;-72
2021/04/12 05:02:41;;;;;;;43.75;17.75;;;;;;;8.59;68.61;97946.34;5013845;28;20501;-73
2021/04/12 05:05:25;;;;;;;59.80;16.20;;;;;;;8.78;67.68;97954.31;5030480;28;20036;-72
2021/04/12 05:08:09;;;;;;;36.00;14.10;;;;;;;8.87;67.75;97953.88;5030442;28;20029;-73
2021/04/12 05:10:50;;;;;;;29.42;13.15;;;;;;;9.05;64.67;97958.31;5034917;28;20040;-73
2021/04/12 05:13:16;;;;;;;43.70;13.65;;;;;;;9.10;65.26;97950.97;5070279;28;20175;-73
2021/04/12 05:16:00;;;;;;;40.22;16.80;;;;;;;9.13;65.24;97960.63;5071768;28;20523;-72
2021/04/12 05:18:50;;;;;;;56.03;20.10;;;;;;;9.22;65.02;97953.03;5055959;28;20141;-73
2021/04/12 05:21:18;;;;;;;39.00;13.05;;;;;;;9.31;62.38;97959.69;5087130;28;20074;-73
2021/04/12 05:23:52;;;;;;;40.88;15.30;;;;;;;9.53;61.07;97954.13;5070223;28;20116;-73
2021/04/12 05:26:27;;;;;;;35.45;12.50;;;;;;;9.80;60.23;97955.38;5071377;28;20029;-73
2021/04/12 05:29:34;;;;;;;37.10;12.38;;;;;;;9.85;57.66;97955.97;5071324;28;20523;-73
2021/04/12 05:32:17;;;;;;;55.60;16.38;;;;;;;10.00;56.50;97965.84;5071059;28;20484;-73
2021/04/12 05:34:46;;;;;;;51.58;15.73;;;;;;;10.23;55.22;97965.53;5087114;28;20111;-73
2021/04/12 05:37:50;;;;;;;42.15;14.27;;;;;;;10.38;54.57;97968.31;5053006;28;20037;-74
2021/04/12 05:40:37;;;;;;;29.08;12.23;;;;;;;10.44;53.57;97973.34;5069446;28;20035;-72
2021/04/12 05:43:24;;;;;;;32.22;13.63;;;;;;;10.38;54.18;97973.66;5069246;28;20201;-72
2021/04/12 05:46:15;;;;;;;39.83;14.18;;;;;;;10.61;54.04;97978.66;5069812;28;20040;-72
2021/04/12 05:48:57;;;;;;;36.90;16.83;;;;;;;10.55;54.30;97982.50;5024107;28;20040;-73
2021/04/12 05:51:54;;;;;;;51.88;17.52;;;;;;;10.63;54.78;97982.09;5086493;28;20055;-74
2021/04/12 05:54:23;;;;;;;35.17;17.00;;;;;;;10.70;55.40;97989.69;5070953;28;20124;-73
2021/04/12 05:57:09;;;;;;;32.42;16.20;;;;;;;10.79;56.97;97982.97;5071697;28;20020;-73
2021/04/12 05:59:53;;;;;;;34.72;13.30;;;;;;;10.99;55.04;97984.50;5075220;28;20033;-74
2021/04/12 06:02:28;;;;;;;34.70;15.27;;;;;;;11.11;53.79;97981.13;5073716;28;20607;-73
2021/04/12 06:05:23;;;;;;;63.17;17.33;;;;;;;11.06;52.02;97978.72;5073896;28;20039;-73
2021/04/12 06:08:16;;;;;;;46.97;16.77;;;;;;;11.46;52.45;97973.75;5040454;28;20028;-74
2021/04/12 06:11:14;;;;;;;72.75;30.85;;;;;;;11.61;51.17;97965.66;5040352;28;20560;-73
2021/04/12 06:13:40;;;;;;;35.85;15.25;;;;;;;11.83;51.33;97973.31;5074918;28;20060;-74
2021/04/12 06:16:30;;;;;;;36.00;13.98;;;;;;;12.12;49.31;97974.25;5090515;28;20082;-73
2021/04/12 06:19:32;;;;;;;26.75;13.48;;;;;;;12.28;48.87;97983.06;5074818;28;20028;-74
2021/04/12 06:22:18;;;;;;;36.08;13.77;;;;;;;12.70;47.14;97975.03;5051492;28;20094;-74
2021/04/12 06:24:55;;;;;;;55.30;17.23;;;;;;;12.95;47.87;97977.84;5083585;28;20039;-73
2021/04/12 06:27:58;;;;;;;58.80;17.88;;;;;;;13.35;45.80;97970.75;5073535;28;20463;-73
2021/04/12 06:30:42;;;;;;;43.72;16.65;;;;;;;15.98;41.40;97974.25;5074368;28;20025;-74
2021/04/12 06:33:19;;;;;;;42.65;16.85;;;;;;;19.74;34.20;97965.63;5074562;28;20032;-74
2021/04/12 06:35:48;;;;;;;29.13;14.77;;;;;;;21.42;29.22;97954.78;5074630;28;20521;-74
2021/04/12 06:38:45;;;;;;;29.13;13.10;;;;;;;22.70;27.72;97964.38;5074365;28;20028;-72
2021/04/12 06:41:35;;;;;;;31.63;11.85;;;;;;;24.38;24.92;97947.91;5073251;28;20135;-73
2021/04/12 06:44:34;;;;;;;31.10;11.80;;;;;;;24.25;24.36;97949.25;5039832;28;20128;-72
2021/04/12 06:47:21;;;;;;;24.98;12.05;;;;;;;25.01;23.83;97945.28;5064456;28;20056;-72
2021/04/12 06:50:16;;;;;;;28.75;11.55;;;;;;;23.90;24.66;97932.31;5060982;28;20036;-72
2021/04/12 06:53:14;;;;;;;22.50;9.65;;;;;;;24.79;23.40;97941.38;5065254;28;20041;-73
2021/04/12 06:55:55;;;;;;;16.85;10.18;;;;;;;24.25;23.64;97938.31;5042184;28;20059;-73
2021/04/12 06:58:59;;;;;;;17.98;10.10;;;;;;;25.18;22.91;97931.34;5074095;28;20537;-73
2021/04/12 07:01:50;;;;;;;34.55;17.92;;;;;;;26.24;22.09;97937.13;5070402;28;20483;-72
2021/04/12 07:04:33;;;;;;;57.97;26.35;;;;;;;26.55;23.19;97932.38;5089355;28;20038;-73
2021/04/12 07:07:17;;;;;;;46.33;21.30;;;;;;;27.03;21.41;97928.31;5073918;28;20052;-72
2021/04/12 07:10:16;;;;;;;27.17;16.63;;;;;;;26.11;22.33;97923.13;5072514;28;20426;-74
2021/04/12 07:13:12;;;;;;;39.08;13.25;;;;;;;26.06;23.84;97920.94;5041510;28;20045;-74
2021/04/12 07:15:38;;;;;;;24.90;10.98;;;;;;;25.23;24.52;97917.97;5073866;28;20024;-74
2021/04/12 07:18:40;;;;;;;28.75;11.32;;;;;;;25.06;24.31;97919.06;5055745;28;20170;-74
2021/04/12 07:21:43;;;;;;;30.70;9.95;;;;;;;25.24;23.58;97916.09;5064268;28;20056;-73
2021/04/12 07:24:48;;;;;;;23.60;10.20;;;;;;;24.94;24.20;97912.28;5073503;28;20036;-74
2021/04/12 07:27:39;;;;;;;18.17;9.27;;;;;;;26.55;23.86;97921.41;5048729;28;20036;-74
2021/04/12 07:30:32;;;;;;;22.35;9.18;;;;;;;26.94;22.80;97915.72;5062094;28;20033;-75
2021/04/12 07:33:18;;;;;;;;;;;;;;;27.73;21.72;97897.53;5043803;28;20024;-73
2021/04/12 07:35:56;;;;;;;17.30;8.60;;;;;;;26.73;22.32;97891.69;5047060;28;19999;-73
2021/04/12 07:38:43;;;;;;;27.27;8.07;;;;;;;27.78;22.84;97892.34;5073261;28;20028;-74
2021/04/12 07:41:50;;;;;;;22.58;7.35;;;;;;;27.63;20.73;97880.50;5073098;28;20040;-73
2021/04/12 07:44:34;;;;;;;18.80;8.07;;;;;;;29.29;19.61;97886.22;5063769;28;20477;-72
2021/04/12 07:47:56;;;;;;;14.20;6.10;;;;;;;29.21;18.87;97869.81;5059338;28;20028;-72
2021/04/12 07:50:59;;;;;;;13.23;6.13;;;;;;;29.28;18.37;97873.50;5033808;28;20033;-73
2021/04/12 07:53:55;;;;;;;20.05;6.97;;;;;;;30.59;17.56;97871.06;5016756;28;20037;-75
2021/04/12 07:56:50;;;;;;;21.02;6.60;;;;;;;29.89;18.49;97862.50;5068058;28;20459;-74
2021/04/12 07:59:31;;;;;;;14.48;5.78;;;;;;;31.66;16.74;97871.47;5072175;28;20040;-73
2021/04/12 08:02:23;;;;;;;21.38;7.15;;;;;;;31.24;18.05;97863.75;5071484;28;20040;-73
2021/04/12 08:05:27;;;;;;;194.50;14.20;;;;;;;30.50;16.42;97850.25;5072702;28;20384;-73
2021/04/12 08:08:19;;;;;;;19.30;6.18;;;;;;;29.20;17.43;97839.69;5071253;28;20064;-73
2021/04/12 08:11:22;;;;;;;9.88;5.70;;;;;;;29.70;18.01;97846.72;5054607;28;20499;-74
2021/04/12 08:13:53;;;;;;;18.98;8.57;;;;;;;29.95;17.93;97851.47;5072320;28;20029;-74
2021/04/12 08:16:54;;;;;;;14.97;6.07;;;;;;;29.43;16.95;97834.75;5072632;28;20032;-73
2021/04/12 08:20:07;;;;;;;9.77;5.60;;;;;;;29.68;17.00;97838.66;5063434;28;20097;-74
2021/04/12 08:23:04;;;;;;;6.88;5.38;;;;;;;30.58;16.94;97844.50;5068503;28;20474;-74
2021/04/12 08:26:02;;;;;;;10.55;5.78;;;;;;;28.51;17.91;97821.28;5071177;28;20476;-73
2021/04/12 08:29:13;;;;;;;18.50;5.47;;;;;;;28.52;18.93;97830.38;5071071;28;20029;-73
2021/04/12 08:31:53;;;;;;;18.40;5.57;;;;;;;29.71;17.37;97824.44;5056178;28;20041;-73
2021/04/12 08:34:34;;;;;;;23.40;6.90;;;;;;;31.35;17.29;97818.00;5072301;28;20029;-73
2021/04/12 08:37:25;;;;;;;13.50;6.50;;;;;;;30.68;17.31;97818.34;5070832;28;20108;-74
2021/04/12 08:40:28;;;;;;;9.65;5.30;;;;;;;30.34;17.93;97811.13;5052205;28;20093;-74
2021/04/12 08:42:57;;;;;;;17.02;5.78;;;;;;;31.72;18.21;97825.47;5072037;28;20028;-73
2021/04/12 08:45:34;;;;;;;10.30;5.43;;;;;;;32.45;17.31;97818.38;5072026;28;20060;-73
2021/04/12 08:48:45;;;;;;;13.35;5.68;;;;;;;33.02;15.97;97802.44;5031060;28;20497;-74
2021/04/12 08:51:48;;;;;;;10.45;5.43;;;;;;;32.80;16.21;97802.03;4993731;28;20065;-74
2021/04/12 08:54:29;;;;;;;8.77;4.70;;;;;;;33.04;15.54;97794.75;5010033;28;20489;-74
2021/04/12 08:57:03;;;;;;;22.73;5.80;;;;;;;32.03;16.84;97796.97;5071711;28;20036;-74
2021/04/12 08:59:53;;;;;;;8.43;4.70;;;;;;;33.37;15.53;97791.59;5070573;28;20021;-74
2021/04/12 09:02:43;;;;;;;10.85;4.50;;;;;;;34.74;15.44;97795.03;5030710;28;20033;-74
2021/04/12 09:05:33;;;;;;;15.88;4.90;;;;;;;34.02;14.64;97785.13;5071689;28;20468;-74
2021/04/12 09:08:09;;;;;;;10.38;5.63;;;;;;;29.85;18.17;97778.44;5070358;28;20048;-73
2021/04/12 09:10:42;;;;;;;11.50;4.47;;;;;;;31.98;16.01;97782.94;5071130;28;20081;-74
2021/04/12 09:13:45;;;;;;;17.52;5.03;;;;;;;32.33;16.60;97775.88;5071647;28;20031;-74
2021/04/12 09:16:48;;;;;;;23.63;5.65;;;;;;;32.64;16.05;97774.97;5070281;28;20028;-74
2021/04/12 09:19:31;;;;;;;12.45;4.20;;;;;;;33.37;15.40;97764.72;5030492;28;20041;-74
2021/04/12 09:22:25;;;;;;;16.50;4.70;;;;;;;33.38;16.46;97769.16;5069622;28;20028;-74
2021/04/12 09:25:15;;;;;;;8.20;4.13;;;;;;;34.63;14.65;97756.97;5053451;28;20024;-74
2021/04/12 09:27:52;;;;;;;10.25;4.35;;;;;;;33.07;15.91;97745.22;5070141;28;20032;-74
2021/04/12 09:30:40;;;;;;;31.45;4.95;;;;;;;31.98;15.82;97739.50;5070138;28;20029;-74
2021/04/12 09:33:18;;;;;;;17.60;4.60;;;;;;;33.96;15.54;97749.13;5070779;28;20108;-74
2021/04/12 09:35:53;;;;;;;4.72;3.70;;;;;;;34.57;15.07;97749.59;5053233;28;20546;-74
2021/04/12 09:38:41;;;;;;;9.23;4.28;;;;;;;34.70;14.75;97746.56;5071450;28;20408;-74
2021/04/12 09:41:34;;;;;;;16.40;5.85;;;;;;;35.30;15.56;97752.63;5029269;28;20044;-74
2021/04/12 09:44:38;;;;;;;15.35;4.25;;;;;;;35.85;13.82;97744.56;5069611;28;20035;-74
2021/04/12 09:47:37;;;;;;;19.17;4.28;;;;;;;34.42;14.50;97724.22;5037322;28;20024;-74
2021/04/12 09:50:12;;;;;;;15.25;4.25;;;;;;;35.27;15.31;97741.16;5069890;28;20052;-74
2021/04/12 09:52:55;;;;;;;9.32;4.30;;;;;;;35.69;13.64;97737.00;5069916;28;20033;-74
2021/04/12 09:55:48;;;;;;;8.68;4.50;;;;;;;34.38;14.06;97723.00;5013882;28;20036;-74
2021/04/12 09:58:19;;;;;;;8.88;4.10;;;;;;;34.48;15.55;97731.59;5071328;28;20099;-72
2021/04/12 10:01:14;;;;;;;6.03;3.70;;;;;;;34.44;15.94;97729.50;5071092;28;20021;-73
2021/04/12 10:04:36;;;;;;;12.93;3.80;;;;;;;34.53;14.50;97717.78;5070908;28;20056;-73
2021/04/12 10:07:21;;;;;;;;;;;;;;;35.89;14.04;97717.91;5017369;28;20547;-73
2021/04/12 10:09:53;;;;;;;13.10;4.00;;;;;;;35.67;13.13;97719.72;5009456;28;19909;-73
2021/04/12 10:13:00;;;;;;;20.20;4.22;;;;;;;35.14;14.03;97706.13;5036798;28;20066;-73
2021/04/12 10:15:50;;;;;;;10.90;4.57;;;;;;;34.90;13.95;97701.69;5070469;28;20120;-73
2021/04/12 10:18:36;;;;;;;7.20;3.90;;;;;;;35.30;13.84;97702.56;5057069;28;20025;-74
2021/04/12 10:21:45;;;;;;;7.53;3.92;;;;;;;34.20;14.07;97706.44;5069491;28;20119;-74
2021/04/12 10:24:19;;;;;;;10.55;4.07;;;;;;;34.21;14.47;97706.19;5069454;28;20123;-74
2021/04/12 10:26:48;;;;;;;13.10;3.60;;;;;;;35.14;13.51;97696.91;5069572;28;20024;-74
2021/04/12 10:29:44;;;;;;;9.43;4.22;;;;;;;36.15;13.50;97702.47;5069641;28;20515;-73
2021/04/12 10:32:13;;;;;;;85.72;6.32;;;;;;;35.12;13.26;97682.41;5068774;28;20040;-74
2021/04/12 10:34:45;;;;;;;10.65;3.60;;;;;;;34.23;13.64;97675.41;5070744;28;20406;-74
2021/04/12 10:37:48;;;;;;;8.65;3.83;;;;;;;35.17;15.33;97685.28;5052853;28;20403;-73
2021/04/12 10:40:39;;;;;;;9.23;4.13;;;;;;;35.57;14.94;97688.88;5070909;28;20479;-74
2021/04/12 10:43:31;;;;;;;10.32;3.92;;;;;;;36.61;13.98;97680.91;5070205;28;20032;-74
2021/04/12 10:46:27;;;;;;;18.17;3.95;;;;;;;37.55;12.53;97684.34;5072704;28;20036;-73
2021/04/12 10:49:48;;;;;;;7.65;3.67;;;;;;;36.97;12.60;97671.06;5074105;28;20121;-74
2021/04/12 10:52:40;;;;;;;7.00;3.05;;;;;;;35.47;13.17;97671.97;5029901;28;20476;-73
2021/04/12 10:55:21;;;;;;;9.23;3.72;;;;;;;36.47;12.27;97660.03;5072725;28;20063;-73
2021/04/12 10:58:11;;;;;;;4.88;3.40;;;;;;;36.74;12.30;97663.78;5074296;28;20081;-75
2021/04/12 11:00:48;;;;;;;7.45;3.20;;;;;;;37.23;11.79;97657.16;5074508;28;20020;-72
2021/04/12 11:03:23;;;;;;;8.02;3.30;;;;;;;36.87;12.49;97646.66;5072609;28;20024;-73
2021/04/12 11:06:12;;;;;;;9.98;3.75;;;;;;;37.20;12.10;97643.72;5073995;28;20044;-73
2021/04/12 11:08:47;;;;;;;9.68;3.53;;;;;;;35.64;15.35;97642.25;5072754;28;20035;-73
2021/04/12 11:11:20;;;;;;;9.82;3.40;;;;;;;36.18;14.18;97653.75;5073628;28;20137;-73
2021/04/12 11:13:55;;;;;;;8.68;3.40;;;;;;;36.56;13.65;97652.94;5055921;28;20385;-73
2021/04/12 11:16:45;;;;;;;12.57;3.53;;;;;;;36.64;12.97;97647.75;5056948;28;20029;-75
2021/04/12 11:19:15;;;;;;;12.25;3.60;;;;;;;34.75;13.49;97631.84;5056303;28;20531;-74
2021/04/12 11:22:04;;;;;;;6.85;2.90;;;;;;;35.03;14.07;97633.81;5056072;28;20514;-72
2021/04/12 11:24:57;;;;;;;5.85;2.92;;;;;;;33.82;14.23;97628.25;5033558;28;20116;-73
2021/04/12 11:27:54;;;;;;;8.68;3.35;;;;;;;34.77;13.46;97630.50;5040453;28;20175;-73
2021/04/12 11:30:37;;;;;;;9.68;3.30;;;;;;;35.52;13.74;97621.97;5055754;28;20032;-73
2021/04/12 11:33:17;;;;;;;8.95;3.60;;;;;;;36.35;13.71;97630.31;5055370;28;20032;-74
2021/04/12 11:36:01;;;;;;;9.30;4.10;;;;;;;34.68;14.70;97620.84;5073541;28;20107;-75
2021/04/12 11:38:48;;;;;;;9.68;3.70;;;;;;;35.98;13.38;97622.75;5042190;28;20016;-73
2021/04/12 11:41:19;;;;;;;7.35;2.80;;;;;;;35.93;13.21;97623.53;5055542;28;20017;-75
2021/04/12 11:43:51;;;;;;;7.68;3.50;;;;;;;34.16;13.75;97610.78;5071880;28;20033;-73
2021/04/12 11:46:19;;;;;;;;;;;;;;;35.90;13.73;97624.84;5072321;28;20484;-73
2021/04/12 11:49:16;;;;;;;11.82;3.40;;;;;;;36.41;14.19;97622.88;5055424;28;19912;-73
2021/04/12 11:51:48;;;;;;;10.05;3.40;;;;;;;36.71;13.00;97617.72;5069970;28;20426;-74
2021/04/12 11:54:39;;;;;;;6.25;3.38;;;;;;;37.63;14.11;97619.63;5072657;28;20199;-74
2021/04/12 11:57:35;;;;;;;10.25;3.33;;;;;;;37.25;11.88;97610.31;5051223;28;20488;-74
2021/04/12 12:00:14;;;;;;;12.45;4.97;;;;;;;36.83;13.14;97606.44;5055090;28;20036;-74
2021/04/12 12:02:47;;;;;;;10.90;3.95;;;;;;;35.60;13.76;97607.66;5055313;28;20025;-73
2021/04/12 12:05:19;;;;;;;7.95;3.22;;;;;;;35.71;12.84;97603.09;5055157;28;20016;-73
2021/04/12 12:08:26;;;;;;;7.95;3.15;;;;;;;35.06;13.41;97606.34;5055043;28;20136;-73
2021/04/12 12:11:03;;;;;;;9.60;3.40;;;;;;;35.09;13.55;97594.75;5072238;28;20107;-72
2021/04/12 12:13:35;;;;;;;15.63;4.00;;;;;;;35.90;13.09;97607.31;5055840;28;20027;-73
2021/04/12 12:16:25;;;;;;;8.15;3.33;;;;;;;35.63;14.69;97600.72;5072597;28;20028;-73
2021/04/12 12:19:12;;;;;;;7.50;3.60;;;;;;;35.69;13.54;97586.63;5055076;28;20078;-73
2021/04/12 12:21:43;;;;;;;13.82;3.78;;;;;;;36.01;13.67;97599.94;5071173;28;20032;-73
2021/04/12 12:24:35;;;;;;;;;;;;;;;34.75;14.25;97582.66;5054345;28;20458;-74
2021/04/12 12:27:24;;;;;;;22.67;3.50;;;;;;;35.14;13.95;97582.84;5037878;28;19913;-73
2021/04/12 12:30:09;;;;;;;9.27;3.53;;;;;;;35.44;13.39;97580.59;5062649;28;20404;-74
2021/04/12 12:32:45;;;;;;;14.63;3.40;;;;;;;35.43;13.56;97570.59;5043553;28;20032;-74
2021/04/12 12:35:37;;;;;;;12.05;3.38;;;;;;;34.61;14.15;97563.72;5053071;28;20480;-75
2021/04/12 12:38:15;;;;;;;14.98;4.47;;;;;;;32.58;16.42;97560.56;5051646;28;20488;-74
2021/04/12 12:40:51;;;;;;;12.35;4.10;;;;;;;31.96;15.88;97558.09;5059757;28;20067;-73
2021/04/12 12:43:37;;;;;;;16.08;3.40;;;;;;;33.28;15.27;97558.06;5037688;28;20028;-73
2021/04/12 12:46:08;;;;;;;9.23;3.30;;;;;;;32.67;15.94;97564.69;5070433;28;20517;-72
2021/04/12 12:48:36;;;;;;;14.50;3.40;;;;;;;32.19;15.46;97549.97;5070593;28;20025;-73
2021/04/12 12:51:09;;;;;;;15.52;3.70;;;;;;;32.67;15.70;97561.94;5053866;28;20024;-72
2021/04/12 12:53:37;;;;;;;6.85;3.20;;;;;;;32.83;14.60;97549.34;5047146;28;20673;-72
2021/04/12 12:56:24;;;;;;;25.67;5.22;;;;;;;33.08;14.41;97541.72;5054007;28;20043;-73